Time;durP1;ratioP1;P1;durP2;ratioP2;P2;SDS_P1;SDS_P2;PMS_P1;PMS_P2;Temp;Humidity;BMP_temperature;BMP_pressure;BME280_temperature;BME280_humidity;BME280_pressure;Samples;Min_cycle;Max_cycle;Signal;HPM_P1;HPM_P2
2023/12/06 00:01:56;;;;;;;;;;;;;;;;;;5068456;28;20018;-78
2023/12/06 00:04:22;;;;;;;;;;;;;;;;;;5069971;28;19925;-78
2023/12/06 00:06:49;;;;;;;;;;;;;;;;;;5072765;28;20447;-77
2023/12/06 00:09:15;;;;;;;;;;;;;;;;;;5071704;28;19925;-77
2023/12/06 00:11:41;;;;;;;;;;;;;;;;;;5073085;28;19924;-78
2023/12/06 00:14:07;;;;;;;;;;;;;;;;;;5066917;28;19928;-79
2023/12/06 00:16:34;;;;;;;;;;;;;;;;;;5073127;28;19928;-79
2023/12/06 00:19:00;;;;;;;;;;;;;;;;;;5071985;28;20381;-79
2023/12/06 00:21:26;;;;;;;;;;;;;;;;;;5069746;28;19928;-81
2023/12/06 00:23:52;;;;;;;;;;;;;;;;;;5072107;28;19928;-79
2023/12/06 00:26:19;;;;;;;;;;;;;;;;;;5073157;28;19950;-79
2023/12/06 00:28:45;;;;;;;;;;;;;;;;;;5072482;28;20353;-79
2023/12/06 00:31:11;;;;;;;;;;;;;;;;;;5071942;28;20295;-78
2023/12/06 00:33:37;;;;;;;;;;;;;;;;;;5072752;28;20331;-78
2023/12/06 00:36:04;;;;;;;;;;;;;;;;;;5072251;28;19933;-78
2023/12/06 00:38:30;;;;;;;;;;;;;;;;;;5070513;28;19924;-79
2023/12/06 00:40:56;;;;;;;;;;;;;;;;;;5066791;28;21758;-78
2023/12/06 00:43:22;;;;;;;;;;;;;;;;;;5069897;28;19978;-78
2023/12/06 00:45:49;;;;;;;;;;;;;;;;;;5071701;28;19970;-78
2023/12/06 00:48:15;;;;;;;;;;;;;;;;;;5072960;28;19998;-78
2023/12/06 00:50:42;;;;;;;;;;;;;;;;;;5071797;28;20374;-78
2023/12/06 00:53:08;;;;;;;;;;;;;;;;;;5071748;28;20557;-76
2023/12/06 00:55:34;;;;;;;;;;;;;;;;;;5072196;28;19929;-76
2023/12/06 00:58:00;;;;;;;;;;;;;;;;;;5068287;28;19925;-76
2023/12/06 01:00:27;;;;;;;;;;;;;;;;;;5068840;28;19955;-76
2023/12/06 01:02:53;;;;;;;;;;;;;;;;;;5071854;28;19967;-76
2023/12/06 01:05:19;;;;;;;;;;;;;;;;;;5072043;28;19970;-76
2023/12/06 01:07:46;;;;;;;;;;;;;;;;;;5071695;28;19928;-76
2023/12/06 01:10:12;;;;;;;;;;;;;;;;;;5072131;28;19932;-76
2023/12/06 01:12:38;;;;;;;;;;;;;;;;;;5071037;28;20266;-76
2023/12/06 01:15:04;;;;;;;;;;;;;;;;;;5071133;28;19932;-76
2023/12/06 01:17:32;;;;;;;;;;;;;;;;;;5066538;28;19940;-77
2023/12/06 01:19:58;;;;;;;;;;;;;;;;;;5069254;28;19924;-76
2023/12/06 01:22:24;;;;;;;;;;;;;;;;;;5070718;28;19929;-76
2023/12/06 01:24:50;;;;;;;;;;;;;;;;;;5071013;28;19970;-76
2023/12/06 01:27:17;;;;;;;;;;;;;;;;;;5072072;28;20414;-79
2023/12/06 01:29:43;;;;;;;;;;;;;;;;;;5071792;28;19972;-79
2023/12/06 01:32:09;;;;;;;;;;;;;;;;;;5067266;28;19978;-79
2023/12/06 01:34:36;;;;;;;;;;;;;;;;;;5069311;28;19978;-79
2023/12/06 01:37:02;;;;;;;;;;;;;;;;;;5071324;28;20007;-80
2023/12/06 01:39:28;;;;;;;;;;;;;;;;;;5061238;28;19982;-79
2023/12/06 01:41:54;;;;;;;;;;;;;;;;;;5069438;28;20487;-79
2023/12/06 01:44:21;;;;;;;;;;;;;;;;;;5068358;28;19928;-79
2023/12/06 01:46:47;;;;;;;;;;;;;;;;;;5067680;28;19924;-79
2023/12/06 01:49:13;;;;;;;;;;;;;;;;;;5066957;28;20384;-80
2023/12/06 01:51:40;;;;;;;;;;;;;;;;;;5063074;28;19925;-79
2023/12/06 01:54:06;;;;;;;;;;;;;;;;;;5062517;28;19933;-78
2023/12/06 01:56:32;;;;;;;;;;;;;;;;;;5062736;28;19929;-79
2023/12/06 01:58:58;;;;;;;;;;;;;;;;;;5064535;28;19946;-79
2023/12/06 02:01:25;;;;;;;;;;;;;;;;;;5065149;28;19928;-79
2023/12/06 02:03:51;;;;;;;;;;;;;;;;;;5062566;28;19928;-79
2023/12/06 02:06:17;;;;;;;;;;;;;;;;;;5062937;28;20442;-79
2023/12/06 02:08:43;;;;;;;;;;;;;;;;;;5062395;28;19986;-79
2023/12/06 02:11:10;;;;;;;;;;;;;;;;;;5062489;28;19939;-79
2023/12/06 02:13:36;;;;;;;;;;;;;;;;;;5064858;28;19936;-78
2023/12/06 02:16:02;;;;;;;;;;;;;;;;;;5064061;28;20360;-79
2023/12/06 02:18:29;;;;;;;;;;;;;;;;;;5061802;28;19989;-80
2023/12/06 02:20:55;;;;;;;;;;;;;;;;;;5061122;28;19935;-80
2023/12/06 02:23:21;;;;;;;;;;;;;;;;;;5063396;28;19929;-79
2023/12/06 02:25:47;;;;;;;;;;;;;;;;;;5062679;28;20511;-79
2023/12/06 02:28:14;;;;;;;;;;;;;;;;;;5063309;28;19929;-80
2023/12/06 02:30:40;;;;;;;;;;;;;;;;;;5062761;28;19978;-79
2023/12/06 02:33:06;;;;;;;;;;;;;;;;;;5064894;28;19932;-80
2023/12/06 02:35:33;;;;;;;;;;;;;;;;;;5069400;28;19925;-80
2023/12/06 02:37:59;;;;;;;;;;;;;;;;;;5065427;28;19997;-79
2023/12/06 02:40:25;;;;;;;;;;;;;;;;;;5065071;28;19936;-80
2023/12/06 02:42:52;;;;;;;;;;;;;;;;;;5070080;28;19924;-80
2023/12/06 02:45:18;;;;;;;;;;;;;;;;;;5068898;28;19989;-78
2023/12/06 02:47:44;;;;;;;;;;;;;;;;;;5069812;28;19924;-79
2023/12/06 02:50:10;;;;;;;;;;;;;;;;;;5069959;28;20701;-80
2023/12/06 02:52:37;;;;;;;;;;;;;;;;;;5068220;28;19925;-79
2023/12/06 02:55:03;;;;;;;;;;;;;;;;;;5066975;28;19925;-78
2023/12/06 02:57:29;;;;;;;;;;;;;;;;;;5065890;28;20392;-79
2023/12/06 02:59:55;;;;;;;;;;;;;;;;;;5064801;28;19935;-79
2023/12/06 03:02:22;;;;;;;;;;;;;;;;;;5062207;28;19928;-79
2023/12/06 03:04:48;;;;;;;;;;;;;;;;;;5066301;28;20022;-79
2023/12/06 03:07:14;;;;;;;;;;;;;;;;;;5061377;28;20332;-79
2023/12/06 03:09:40;;;;;;;;;;;;;;;;;;5065488;28;19997;-79
2023/12/06 03:12:07;;;;;;;;;;;;;;;;;;5068431;28;19928;-79
2023/12/06 03:14:33;;;;;;;;;;;;;;;;;;5070927;28;19963;-79
2023/12/06 03:17:00;;;;;;;;;;;;;;;;;;5068859;28;20061;-79
2023/12/06 03:19:26;;;;;;;;;;;;;;;;;;5069240;28;19982;-79
2023/12/06 03:21:52;;;;;;;;;;;;;;;;;;5068336;28;19928;-79
2023/12/06 03:24:18;;;;;;;;;;;;;;;;;;5069520;28;20290;-79
2023/12/06 03:26:45;;;;;;;;;;;;;;;;;;5067619;28;19977;-79
2023/12/06 03:29:11;;;;;;;;;;;;;;;;;;5064730;28;19978;-79
2023/12/06 03:31:37;;;;;;;;;;;;;;;;;;5072212;28;19924;-79
2023/12/06 03:34:03;;;;;;;;;;;;;;;;;;5071707;28;19924;-79
2023/12/06 03:36:30;;;;;;;;;;;;;;;;;;5072410;28;20072;-79
2023/12/06 03:38:56;;;;;;;;;;;;;;;;;;5072294;28;19982;-79
2023/12/06 03:41:22;;;;;;;;;;;;;;;;;;5068998;28;19947;-80
2023/12/06 03:43:49;;;;;;;;;;;;;;;;;;5072825;28;19924;-80
2023/12/06 03:46:15;;;;;;;;;;;;;;;;;;5071973;28;19929;-80
2023/12/06 03:48:41;;;;;;;;;;;;;;;;;;5068879;28;20369;-79
2023/12/06 03:51:07;;;;;;;;;;;;;;;;;;5068833;28;19985;-81
2023/12/06 03:53:34;;;;;;;;;;;;;;;;;;5067649;28;19999;-81
2023/12/06 03:56:00;;;;;;;;;;;;;;;;;;5072666;28;19931;-80
2023/12/06 03:58:26;;;;;;;;;;;;;;;;;;5072586;28;19928;-81
2023/12/06 04:00:52;;;;;;;;;;;;;;;;;;5072998;28;20284;-81
2023/12/06 04:03:19;;;;;;;;;;;;;;;;;;5073419;28;19925;-81
2023/12/06 04:05:45;;;;;;;;;;;;;;;;;;5073555;28;20554;-81
2023/12/06 04:08:11;;;;;;;;;;;;;;;;;;5068564;28;19932;-80
2023/12/06 04:10:38;;;;;;;;;;;;;;;;;;5073296;28;19950;-81
2023/12/06 04:13:04;;;;;;;;;;;;;;;;;;5072663;28;19925;-79
2023/12/06 04:15:30;;;;;;;;;;;;;;;;;;5073308;28;19975;-79
2023/12/06 04:17:56;;;;;;;;;;;;;;;;;;5071763;28;19928;-79
2023/12/06 04:20:23;;;;;;;;;;;;;;;;;;5066273;28;19931;-79
2023/12/06 04:22:49;;;;;;;;;;;;;;;;;;5069187;28;19956;-79
2023/12/06 04:25:15;;;;;;;;;;;;;;;;;;5068765;28;19933;-78
2023/12/06 04:27:41;;;;;;;;;;;;;;;;;;5069632;28;19978;-78
2023/12/06 04:30:08;;;;;;;;;;;;;;;;;;5071403;28;19933;-81
2023/12/06 04:32:34;;;;;;;;;;;;;;;;;;5073043;28;19928;-82
2023/12/06 04:35:00;;;;;;;;;;;;;;;;;;5072418;28;19924;-81
2023/12/06 04:37:27;;;;;;;;;;;;;;;;;;5073057;28;19985;-82
2023/12/06 04:39:53;;;;;;;;;;;;;;;;;;5071850;28;19925;-81
2023/12/06 04:42:19;;;;;;;;;;;;;;;;;;5072395;28;19925;-81
2023/12/06 04:44:46;;;;;;;;;;;;;;;;;;5070545;28;19936;-81
2023/12/06 04:47:12;;;;;;;;;;;;;;;;;;5071986;28;20011;-80
2023/12/06 04:49:38;;;;;;;;;;;;;;;;;;5072024;28;20442;-81
2023/12/06 04:52:05;;;;;;;;;;;;;;;;;;5072096;28;19928;-80
2023/12/06 04:54:31;;;;;;;;;;;;;;;;;;5073163;28;19955;-80
2023/12/06 04:56:56;;;;;;;;;;;;;;;;;;5072068;28;19958;-80
2023/12/06 04:59:22;;;;;;;;;;;;;;;;;;5071971;28;19925;-80
2023/12/06 05:01:49;;;;;;;;;;;;;;;;;;5067375;28;19932;-80
2023/12/06 05:04:15;;;;;;;;;;;;;;;;;;5067347;28;20007;-80
2023/12/06 05:06:42;;;;;;;;;;;;;;;;;;5068957;28;19924;-80
2023/12/06 05:09:08;;;;;;;;;;;;;;;;;;5070161;28;19959;-80
2023/12/06 05:11:35;;;;;;;;;;;;;;;;;;5071025;28;20332;-80
2023/12/06 05:14:02;;;;;;;;;;;;;;;;;;5071987;28;19928;-78
2023/12/06 05:16:28;;;;;;;;;;;;;;;;;;5071680;28;19924;-81
2023/12/06 05:18:54;;;;;;;;;;;;;;;;;;5073957;28;19969;-80
2023/12/06 05:21:21;;;;;;;;;;;;;;;;;;5071949;28;19928;-81
2023/12/06 05:23:48;;;;;;;;;;;;;;;;;;5068662;28;20278;-79
2023/12/06 05:26:14;;;;;;;;;;;;;;;;;;5068978;28;20019;-80
2023/12/06 05:28:40;;;;;;;;;;;;;;;;;;5069062;28;20371;-80
2023/12/06 05:31:07;;;;;;;;;;;;;;;;;;5068845;28;19978;-80
2023/12/06 05:33:33;;;;;;;;;;;;;;;;;;5072841;28;19924;-80
2023/12/06 05:35:59;;;;;;;;;;;;;;;;;;5072777;28;19977;-80
2023/12/06 05:38:25;;;;;;;;;;;;;;;;;;5072638;28;19940;-81
2023/12/06 05:40:52;;;;;;;;;;;;;;;;;;5070361;28;19924;-78
2023/12/06 05:43:18;;;;;;;;;;;;;;;;;;5069998;28;19978;-80
2023/12/06 05:45:44;;;;;;;;;;;;;;;;;;5071315;28;19962;-80
2023/12/06 05:48:11;;;;;;;;;;;;;;;;;;5067821;28;20439;-80
2023/12/06 05:50:37;;;;;;;;;;;;;;;;;;5067308;28;19928;-79
2023/12/06 05:53:04;;;;;;;;;;;;;;;;;;5069156;28;19932;-81
2023/12/06 05:55:30;;;;;;;;;;;;;;;;;;5069349;28;19928;-80
2023/12/06 05:57:56;;;;;;;;;;;;;;;;;;5070524;28;20428;-81
2023/12/06 06:00:24;;;;;;;;;;;;;;;;;;5070471;28;20396;-81
2023/12/06 06:02:52;;;;;;;;;;;;;;;;;;5070391;28;19989;-81
2023/12/06 06:05:18;;;;;;;;;;;;;;;;;;5070730;28;20019;-81
2023/12/06 06:07:44;;;;;;;;;;;;;;;;;;5067999;28;19925;-81
2023/12/06 06:10:10;;;;;;;;;;;;;;;;;;5067636;28;19939;-81
2023/12/06 06:12:37;;;;;;;;;;;;;;;;;;5066730;28;19929;-81
2023/12/06 06:15:03;;;;;;;;;;;;;;;;;;5067278;28;19974;-81
2023/12/06 06:17:29;;;;;;;;;;;;;;;;;;5070383;28;20339;-81
2023/12/06 06:19:55;;;;;;;;;;;;;;;;;;5071238;28;19934;-81
2023/12/06 06:22:22;;;;;;;;;;;;;;;;;;5068299;28;20691;-80
2023/12/06 06:24:48;;;;;;;;;;;;;;;;;;5067241;28;19925;-80
2023/12/06 06:27:14;;;;;;;;;;;;;;;;;;5070298;28;19986;-81
2023/12/06 06:29:40;;;;;;;;;;;;;;;;;;5070861;28;19932;-83
2023/12/06 06:32:07;;;;;;;;;;;;;;;;;;5071177;28;20356;-83
2023/12/06 06:34:33;;;;;;;;;;;;;;;;;;5069711;28;20021;-82
2023/12/06 06:37:00;;;;;;;;;;;;;;;;;;5070617;28;19970;-82
2023/12/06 06:39:28;;;;;;;;;;;;;;;;;;5070097;28;19933;-81
2023/12/06 06:41:54;;;;;;;;;;;;;;;;;;5070267;28;19931;-81
2023/12/06 06:44:20;;;;;;;;;;;;;;;;;;5062142;28;19989;-81
2023/12/06 06:46:46;;;;;;;;;;;;;;;;;;5068380;28;20011;-81
2023/12/06 06:49:13;;;;;;;;;;;;;;;;;;5070698;28;20057;-82
2023/12/06 06:51:39;;;;;;;;;;;;;;;;;;5070158;28;19974;-82
2023/12/06 06:54:06;;;;;;;;;;;;;;;;;;5070200;28;19985;-82
2023/12/06 06:56:32;;;;;;;;;;;;;;;;;;5067201;28;20016;-82
2023/12/06 06:58:59;;;;;;;;;;;;;;;;;;5070494;28;19928;-82
2023/12/06 07:01:26;;;;;;;;;;;;;;;;;;5070136;28;19957;-82
2023/12/06 07:03:53;;;;;;;;;;;;;;;;;;5072452;28;19929;-82
2023/12/06 07:06:19;;;;;;;;;;;;;;;;;;5069858;28;19932;-81
2023/12/06 07:08:46;;;;;;;;;;;;;;;;;;5070946;28;20317;-80
2023/12/06 07:11:12;;;;;;;;;;;;;;;;;;5075041;28;19977;-81
2023/12/06 07:13:39;;;;;;;;;;;;;;;;;;5075650;28;19974;-80
2023/12/06 07:16:05;;;;;;;;;;;;;;;;;;5074142;28;19928;-81
2023/12/06 07:18:32;;;;;;;;;;;;;;;;;;5072232;28;19928;-80
2023/12/06 07:20:58;;;;;;;;;;;;;;;;;;5076718;28;19938;-80
2023/12/06 07:23:24;;;;;;;;;;;;;;;;;;5076315;28;20461;-80
2023/12/06 07:25:50;;;;;;;;;;;;;;;;;;5077163;28;19985;-80
2023/12/06 07:28:17;;;;;;;;;;;;;;;;;;5076851;28;19925;-80
2023/12/06 07:30:43;;;;;;;;;;;;;;;;;;5073993;28;20015;-81
2023/12/06 07:33:09;;;;;;;;;;;;;;;;;;5074863;28;20368;-81
2023/12/06 07:35:35;;;;;;;;;;;;;;;;;;5072552;28;19932;-81
2023/12/06 07:38:02;;;;;;;;;;;;;;;;;;5070760;28;19924;-81
2023/12/06 07:40:28;;;;;;;;;;;;;;;;;;5075097;28;19925;-81
2023/12/06 07:42:54;;;;;;;;;;;;;;;;;;5076150;28;20432;-81
2023/12/06 07:45:20;;;;;;;;;;;;;;;;;;5078063;28;19932;-80
2023/12/06 07:47:47;;;;;;;;;;;;;;;;;;5076407;28;19948;-81
2023/12/06 07:50:13;;;;;;;;;;;;;;;;;;5076968;28;20365;-81
2023/12/06 07:52:39;;;;;;;;;;;;;;;;;;5074007;28;19928;-81
2023/12/06 07:55:06;;;;;;;;;;;;;;;;;;5072249;28;19978;-80
2023/12/06 07:57:32;;;;;;;;;;;;;;;;;;5073114;28;19924;-80
2023/12/06 07:59:59;;;;;;;;;;;;;;;;;;5074039;28;19977;-81
2023/12/06 08:02:25;;;;;;;;;;;;;;;;;;5071776;28;20428;-81
2023/12/06 08:04:51;;;;;;;;;;;;;;;;;;5076002;28;19974;-81
2023/12/06 08:07:17;;;;;;;;;;;;;;;;;;5072965;28;19986;-80
2023/12/06 08:09:44;;;;;;;;;;;;;;;;;;5073601;28;19924;-80
2023/12/06 08:12:10;;;;;;;;;;;;;;;;;;5073415;28;19985;-81
2023/12/06 08:14:38;;;;;;;;;;;;;;;;;;5070944;28;19932;-81
2023/12/06 08:17:05;;;;;;;;;;;;;;;;;;5069262;28;20015;-81
2023/12/06 08:19:31;;;;;;;;;;;;;;;;;;5072657;28;19958;-80
2023/12/06 08:21:57;;;;;;;;;;;;;;;;;;5068476;28;20312;-81
2023/12/06 08:24:23;;;;;;;;;;;;;;;;;;5072702;28;19978;-80
2023/12/06 08:26:50;;;;;;;;;;;;;;;;;;5073470;28;19985;-80
2023/12/06 08:29:16;;;;;;;;;;;;;;;;;;5072647;28;19932;-80
2023/12/06 08:31:42;;;;;;;;;;;;;;;;;;5072890;28;20327;-80
2023/12/06 08:34:09;;;;;;;;;;;;;;;;;;5073120;28;19936;-81
2023/12/06 08:36:35;;;;;;;;;;;;;;;;;;5072046;28;19924;-80
2023/12/06 08:39:02;;;;;;;;;;;;;;;;;;5072100;28;19929;-80
2023/12/06 08:41:29;;;;;;;;;;;;;;;;;;5071627;28;19931;-81
2023/12/06 08:43:56;;;;;;;;;;;;;;;;;;5072794;28;19932;-81
2023/12/06 08:46:23;;;;;;;;;;;;;;;;;;5072531;28;19924;-80
2023/12/06 08:48:49;;;;;;;;;;;;;;;;;;5066183;28;19928;-82
2023/12/06 08:51:15;;;;;;;;;;;;;;;;;;5072593;28;19928;-81
2023/12/06 08:53:42;;;;;;;;;;;;;;;;;;5072920;28;19925;-81
2023/12/06 08:56:08;;;;;;;;;;;;;;;;;;5072345;28;20426;-81
2023/12/06 08:58:34;;;;;;;;;;;;;;;;;;5070232;28;19925;-81
2023/12/06 09:01:00;;;;;;;;;;;;;;;;;;5071524;28;19931;-82
2023/12/06 09:03:27;;;;;;;;;;;;;;;;;;5071309;28;19971;-81
2023/12/06 09:05:53;;;;;;;;;;;;;;;;;;5071058;28;20336;-81
2023/12/06 09:08:19;;;;;;;;;;;;;;;;;;5070959;28;19978;-80
2023/12/06 09:10:45;;;;;;;;;;;;;;;;;;5071073;28;19928;-81
2023/12/06 09:13:12;;;;;;;;;;;;;;;;;;5071155;28;19947;-81
2023/12/06 09:15:38;;;;;;;;;;;;;;;;;;5071536;28;19938;-81
2023/12/06 09:18:05;;;;;;;;;;;;;;;;;;5071113;28;19924;-81
2023/12/06 09:20:31;;;;;;;;;;;;;;;;;;5071103;28;19928;-81
2023/12/06 09:22:57;;;;;;;;;;;;;;;;;;5071767;28;19928;-81
2023/12/06 09:25:24;;;;;;;;;;;;;;;;;;5071360;28;20343;-81
2023/12/06 09:27:51;;;;;;;;;;;;;;;;;;5072039;28;19998;-82
2023/12/06 09:30:17;;;;;;;;;;;;;;;;;;5071496;28;19963;-82
2023/12/06 09:32:43;;;;;;;;;;;;;;;;;;5069755;28;19986;-82
2023/12/06 09:35:10;;;;;;;;;;;;;;;;;;5071983;28;19946;-82
2023/12/06 09:37:36;;;;;;;;;;;;;;;;;;5071686;28;20407;-82
2023/12/06 09:40:02;;;;;;;;;;;;;;;;;;5071120;28;19978;-82
2023/12/06 09:42:29;;;;;;;;;;;;;;;;;;5067803;28;20362;-82
2023/12/06 09:44:55;;;;;;;;;;;;;;;;;;5071975;28;19924;-82
2023/12/06 09:47:22;;;;;;;;;;;;;;;;;;5070770;28;19925;-81
2023/12/06 09:49:48;;;;;;;;;;;;;;;;;;5070850;28;20377;-82
2023/12/06 09:52:14;;;;;;;;;;;;;;;;;;5071067;28;19924;-82
2023/12/06 09:54:41;;;;;;;;;;;;;;;;;;5070029;28;19932;-81
2023/12/06 09:57:07;;;;;;;;;;;;;;;;;;5070187;28;20003;-81
2023/12/06 09:59:33;;;;;;;;;;;;;;;;;;5070182;28;19924;-81
2023/12/06 10:01:59;;;;;;;;;;;;;;;;;;5070211;28;19925;-81
2023/12/06 10:04:26;;;;;;;;;;;;;;;;;;5070690;28;20414;-81
2023/12/06 10:06:52;;;;;;;;;;;;;;;;;;5070794;28;19924;-81
2023/12/06 10:09:19;;;;;;;;;;;;;;;;;;5070967;28;19925;-80
2023/12/06 10:11:45;;;;;;;;;;;;;;;;;;5068766;28;19967;-81
2023/12/06 10:14:11;;;;;;;;;;;;;;;;;;5070770;28;19936;-81
2023/12/06 10:16:38;;;;;;;;;;;;;;;;;;5070185;28;20355;-81
2023/12/06 10:19:04;;;;;;;;;;;;;;;;;;5071101;28;19932;-81
2023/12/06 10:21:30;;;;;;;;;;;;;;;;;;5070741;28;19924;-81
2023/12/06 10:23:57;;;;;;;;;;;;;;;;;;5069794;28;19928;-81
2023/12/06 10:26:24;;;;;;;;;;;;;;;;;;5069776;28;20315;-80
2023/12/06 10:28:50;;;;;;;;;;;;;;;;;;5068138;28;19932;-81
2023/12/06 10:31:17;;;;;;;;;;;;;;;;;;5067841;28;19928;-81
2023/12/06 10:33:43;;;;;;;;;;;;;;;;;;5068972;28;19929;-81
2023/12/06 10:36:09;;;;;;;;;;;;;;;;;;5070348;28;19975;-81
2023/12/06 10:38:35;;;;;;;;;;;;;;;;;;5068851;28;20250;-81
2023/12/06 10:41:02;;;;;;;;;;;;;;;;;;5070173;28;19970;-81
2023/12/06 10:43:28;;;;;;;;;;;;;;;;;;5069312;28;20975;-81
2023/12/06 10:45:54;;;;;;;;;;;;;;;;;;5070581;28;19928;-81
2023/12/06 10:48:20;;;;;;;;;;;;;;;;;;5070300;28;19925;-81
2023/12/06 10:50:47;;;;;;;;;;;;;;;;;;5070721;28;20343;-81
2023/12/06 10:53:13;;;;;;;;;;;;;;;;;;5069308;28;20003;-81
2023/12/06 10:55:40;;;;;;;;;;;;;;;;;;5065739;28;19932;-81
2023/12/06 10:58:07;;;;;;;;;;;;;;;;;;5069146;28;20786;-81
2023/12/06 11:00:33;;;;;;;;;;;;;;;;;;5067324;28;20024;-81
2023/12/06 11:02:59;;;;;;;;;;;;;;;;;;5069719;28;20446;-81
2023/12/06 11:05:26;;;;;;;;;;;;;;;;;;5069940;28;19935;-81
2023/12/06 11:07:52;;;;;;;;;;;;;;;;;;5067226;28;19928;-80
2023/12/06 11:10:18;;;;;;;;;;;;;;;;;;5070302;28;19924;-81
2023/12/06 11:12:44;;;;;;;;;;;;;;;;;;5067646;28;20335;-80
2023/12/06 11:15:11;;;;;;;;;;;;;;;;;;5067850;28;19936;-84
2023/12/06 11:17:37;;;;;;;;;;;;;;;;;;5070270;28;19924;-83
2023/12/06 11:20:04;;;;;;;;;;;;;;;;;;5069290;28;20001;-83
2023/12/06 11:22:31;;;;;;;;;;;;;;;;;;5069999;28;20020;-84
2023/12/06 11:24:57;;;;;;;;;;;;;;;;;;5068720;28;19954;-83
2023/12/06 11:27:23;;;;;;;;;;;;;;;;;;5069957;28;19977;-83
2023/12/06 11:29:49;;;;;;;;;;;;;;;;;;5069138;28;19935;-82
2023/12/06 11:32:16;;;;;;;;;;;;;;;;;;5069192;28;19982;-83
2023/12/06 11:34:42;;;;;;;;;;;;;;;;;;5069120;28;19967;-83
2023/12/06 11:37:08;;;;;;;;;;;;;;;;;;5068905;28;19977;-82
2023/12/06 11:39:35;;;;;;;;;;;;;;;;;;5070278;28;19940;-82
2023/12/06 11:42:01;;;;;;;;;;;;;;;;;;5068863;28;19928;-83
2023/12/06 11:44:27;;;;;;;;;;;;;;;;;;5069685;28;19929;-80
2023/12/06 11:46:55;;;;;;;;;;;;;;;;;;5068832;28;19985;-82
2023/12/06 11:49:21;;;;;;;;;;;;;;;;;;5068547;28;20025;-82
2023/12/06 11:51:47;;;;;;;;;;;;;;;;;;5071959;28;19925;-82
2023/12/06 11:54:14;;;;;;;;;;;;;;;;;;5073152;28;19975;-82
2023/12/06 11:56:41;;;;;;;;;;;;;;;;;;5070862;28;19928;-83
2023/12/06 11:59:07;;;;;;;;;;;;;;;;;;5073567;28;20629;-83
2023/12/06 12:01:33;;;;;;;;;;;;;;;;;;5074494;28;19924;-84
2023/12/06 12:03:59;;;;;;;;;;;;;;;;;;5073556;28;19928;-84
2023/12/06 12:06:27;;;;;;;;;;;;;;;;;;5067512;28;20441;-83
2023/12/06 12:08:53;;;;;;;;;;;;;;;;;;5072826;28;19978;-83
2023/12/06 12:11:19;;;;;;;;;;;;;;;;;;5074386;28;20292;-83
2023/12/06 12:13:47;;;;;;;;;;;;;;;;;;5066942;28;19930;-83
2023/12/06 12:16:15;;;;;;;;;;;;;;;;;;5060644;28;19928;-84
2023/12/06 12:18:42;;;;;;;;;;;;;;;;;;5072840;28;19925;-83
2023/12/06 12:21:08;;;;;;;;;;;;;;;;;;5073155;28;20308;-84
2023/12/06 12:23:34;;;;;;;;;;;;;;;;;;5073980;28;19924;-83
2023/12/06 12:26:01;;;;;;;;;;;;;;;;;;5071427;28;20353;-82
2023/12/06 12:28:27;;;;;;;;;;;;;;;;;;5072505;28;19935;-82
2023/12/06 12:30:53;;;;;;;;;;;;;;;;;;5072841;28;19933;-82
2023/12/06 12:33:19;;;;;;;;;;;;;;;;;;5073376;28;19925;-83
2023/12/06 12:35:46;;;;;;;;;;;;;;;;;;5073121;28;20429;-83
2023/12/06 12:38:12;;;;;;;;;;;;;;;;;;5072267;28;19978;-82
2023/12/06 12:40:38;;;;;;;;;;;;;;;;;;5073161;28;19924;-80
2023/12/06 12:43:05;;;;;;;;;;;;;;;;;;5072951;28;19932;-81
2023/12/06 12:45:31;;;;;;;;;;;;;;;;;;5073595;28;20103;-82
2023/12/06 12:47:58;;;;;;;;;;;;;;;;;;5072015;28;19924;-81
2023/12/06 12:50:25;;;;;;;;;;;;;;;;;;5072750;28;20347;-82
2023/12/06 12:52:53;;;;;;;;;;;;;;;;;;5072902;28;19925;-81
2023/12/06 12:55:20;;;;;;;;;;;;;;;;;;5072213;28;19963;-82
2023/12/06 12:57:46;;;;;;;;;;;;;;;;;;5071660;28;20343;-81
2023/12/06 13:00:12;;;;;;;;;;;;;;;;;;5072313;28;19925;-81
2023/12/06 13:02:38;;;;;;;;;;;;;;;;;;5072468;28;19970;-82
2023/12/06 13:05:05;;;;;;;;;;;;;;;;;;5072413;28;19939;-82
2023/12/06 13:07:31;;;;;;;;;;;;;;;;;;5073287;28;19928;-81
2023/12/06 13:09:58;;;;;;;;;;;;;;;;;;5071155;28;19970;-81
2023/12/06 13:12:24;;;;;;;;;;;;;;;;;;5072615;28;20016;-80
2023/12/06 13:14:50;;;;;;;;;;;;;;;;;;5069494;28;19932;-82
2023/12/06 13:17:16;;;;;;;;;;;;;;;;;;5072381;28;19974;-81
2023/12/06 13:19:43;;;;;;;;;;;;;;;;;;5070519;28;19939;-81
2023/12/06 13:22:09;;;;;;;;;;;;;;;;;;5071867;28;19999;-81
2023/12/06 13:24:35;;;;;;;;;;;;;;;;;;5072225;28;19939;-82
2023/12/06 13:27:01;;;;;;;;;;;;;;;;;;5072022;28;19932;-82
2023/12/06 13:29:28;;;;;;;;;;;;;;;;;;5071360;28;20382;-83
2023/12/06 13:31:54;;;;;;;;;;;;;;;;;;5071852;28;20027;-82
2023/12/06 13:34:25;;;;;;;;;;;;;;;;;;5071291;28;20452;-79
2023/12/06 13:36:51;;;;;;;;;;;;;;;;;;5070959;28;19929;-81
2023/12/06 13:39:18;;;;;;;;;;;;;;;;;;5070786;28;19924;-80
2023/12/06 13:41:44;;;;;;;;;;;;;;;;;;5071832;28;20388;-83
2023/12/06 13:44:11;;;;;;;;;;;;;;;;;;5065034;28;19932;-82
2023/12/06 13:46:37;;;;;;;;;;;;;;;;;;5064648;28;19924;-82
2023/12/06 13:49:03;;;;;;;;;;;;;;;;;;5071523;28;20019;-82
2023/12/06 13:51:30;;;;;;;;;;;;;;;;;;5071252;28;20141;-83
2023/12/06 13:53:57;;;;;;;;;;;;;;;;;;5070749;28;19929;-82
2023/12/06 13:56:23;;;;;;;;;;;;;;;;;;5072180;28;19924;-82
2023/12/06 13:58:50;;;;;;;;;;;;;;;;;;5071348;28;19978;-82
2023/12/06 14:01:16;;;;;;;;;;;;;;;;;;5070786;28;19967;-83
2023/12/06 14:03:43;;;;;;;;;;;;;;;;;;5070778;28;19974;-83
2023/12/06 14:06:09;;;;;;;;;;;;;;;;;;5071544;28;19932;-83
2023/12/06 14:08:35;;;;;;;;;;;;;;;;;;5071578;28;20273;-83
2023/12/06 14:11:01;;;;;;;;;;;;;;;;;;5066839;28;19928;-84
2023/12/06 14:13:28;;;;;;;;;;;;;;;;;;5067959;28;19925;-84
2023/12/06 14:15:55;;;;;;;;;;;;;;;;;;5071500;28;19925;-83
2023/12/06 14:18:21;;;;;;;;;;;;;;;;;;5071508;28;19929;-83
2023/12/06 14:20:49;;;;;;;;;;;;;;;;;;5070771;28;19974;-81
2023/12/06 14:23:16;;;;;;;;;;;;;;;;;;5066876;28;19928;-83
2023/12/06 14:25:42;;;;;;;;;;;;;;;;;;5071368;28;19932;-83
2023/12/06 14:28:08;;;;;;;;;;;;;;;;;;5070540;28;19932;-82
2023/12/06 14:30:34;;;;;;;;;;;;;;;;;;5071010;28;19924;-82
2023/12/06 14:33:03;;;;;;;;;;;;;;;;;;5069606;28;20435;-83
2023/12/06 14:35:29;;;;;;;;;;;;;;;;;;5071212;28;20450;-83
2023/12/06 14:37:55;;;;;;;;;;;;;;;;;;5069716;28;19924;-82
2023/12/06 14:40:21;;;;;;;;;;;;;;;;;;5068642;28;19990;-83
2023/12/06 14:42:48;;;;;;;;;;;;;;;;;;5069345;28;19931;-83
2023/12/06 14:45:14;;;;;;;;;;;;;;;;;;5070751;28;19935;-83
2023/12/06 14:47:40;;;;;;;;;;;;;;;;;;5069608;28;19928;-83
2023/12/06 14:50:07;;;;;;;;;;;;;;;;;;5070032;28;20597;-83
2023/12/06 14:52:33;;;;;;;;;;;;;;;;;;5068780;28;19932;-83
2023/12/06 14:55:00;;;;;;;;;;;;;;;;;;5069463;28;19924;-83
2023/12/06 14:57:26;;;;;;;;;;;;;;;;;;5066488;28;20408;-83
2023/12/06 14:59:52;;;;;;;;;;;;;;;;;;5069016;28;19928;-83
2023/12/06 15:02:18;;;;;;;;;;;;;;;;;;5069748;28;19928;-83
2023/12/06 15:04:45;;;;;;;;;;;;;;;;;;5068283;28;19978;-83
2023/12/06 15:07:11;;;;;;;;;;;;;;;;;;5069495;28;20392;-83
2023/12/06 15:09:37;;;;;;;;;;;;;;;;;;5070446;28;19994;-83
2023/12/06 15:12:03;;;;;;;;;;;;;;;;;;5069708;28;19928;-83
2023/12/06 15:14:30;;;;;;;;;;;;;;;;;;5068660;28;19928;-82
2023/12/06 15:16:56;;;;;;;;;;;;;;;;;;5069343;28;20385;-83
2023/12/06 15:19:22;;;;;;;;;;;;;;;;;;5070272;28;19928;-83
2023/12/06 15:21:49;;;;;;;;;;;;;;;;;;5069990;28;19985;-84
2023/12/06 15:24:15;;;;;;;;;;;;;;;;;;5070345;28;20400;-85
2023/12/06 15:26:41;;;;;;;;;;;;;;;;;;5074216;28;19932;-84
2023/12/06 15:29:07;;;;;;;;;;;;;;;;;;5073921;28;19997;-85
2023/12/06 15:31:34;;;;;;;;;;;;;;;;;;5069659;28;20007;-85
2023/12/06 15:34:00;;;;;;;;;;;;;;;;;;5073331;28;19928;-85
2023/12/06 15:36:26;;;;;;;;;;;;;;;;;;5069212;28;19928;-85
2023/12/06 15:38:52;;;;;;;;;;;;;;;;;;5072058;28;19931;-84
2023/12/06 15:41:19;;;;;;;;;;;;;;;;;;5074163;28;19928;-85
2023/12/06 15:43:45;;;;;;;;;;;;;;;;;;5072889;28;20430;-83
2023/12/06 15:46:12;;;;;;;;;;;;;;;;;;5071653;28;19932;-85
2023/12/06 15:48:39;;;;;;;;;;;;;;;;;;5073409;28;19925;-85
2023/12/06 15:51:05;;;;;;;;;;;;;;;;;;5071646;28;19924;-85
2023/12/06 15:53:31;;;;;;;;;;;;;;;;;;5073235;28;20943;-85
2023/12/06 15:55:57;;;;;;;;;;;;;;;;;;5072208;28;19928;-86
2023/12/06 15:58:24;;;;;;;;;;;;;;;;;;5073551;28;19924;-86
2023/12/06 16:00:52;;;;;;;;;;;;;;;;;;5073459;28;19974;-84
2023/12/06 16:03:18;;;;;;;;;;;;;;;;;;5072637;28;20372;-86
2023/12/06 16:05:44;;;;;;;;;;;;;;;;;;5073126;28;19978;-86
2023/12/06 16:08:11;;;;;;;;;;;;;;;;;;5073096;28;20017;-86
2023/12/06 16:10:37;;;;;;;;;;;;;;;;;;5073951;28;19925;-87
2023/12/06 16:13:03;;;;;;;;;;;;;;;;;;5073246;28;20289;-86
2023/12/06 16:15:29;;;;;;;;;;;;;;;;;;5073070;28;19986;-85
2023/12/06 16:17:56;;;;;;;;;;;;;;;;;;5073041;28;19933;-86
2023/12/06 16:20:22;;;;;;;;;;;;;;;;;;5073094;28;19925;-83
2023/12/06 16:22:48;;;;;;;;;;;;;;;;;;5070760;28;19979;-85
2023/12/06 16:25:15;;;;;;;;;;;;;;;;;;5074233;28;19925;-85
2023/12/06 16:27:41;;;;;;;;;;;;;;;;;;5072210;28;19932;-85
2023/12/06 16:30:07;;;;;;;;;;;;;;;;;;5072021;28;19932;-86
2023/12/06 16:32:34;;;;;;;;;;;;;;;;;;5073777;28;19932;-85
2023/12/06 16:35:00;;;;;;;;;;;;;;;;;;5072833;28;19928;-85
2023/12/06 16:37:26;;;;;;;;;;;;;;;;;;5071777;28;20613;-85
2023/12/06 16:39:52;;;;;;;;;;;;;;;;;;5072751;28;19970;-85